CDT,Max TemperatureF,Mean TemperatureF,Min TemperatureF,Max Dew PointF,MeanDew PointF,Min DewpointF,Max Humidity, Mean Humidity, Min Humidity, Max Sea Level PressureIn, Mean Sea Level PressureIn, Min Sea Level PressureIn, Max VisibilityMiles, Mean VisibilityMiles, Min VisibilityMiles, Max Wind SpeedMPH, Mean Wind SpeedMPH, Max Gust SpeedMPH,PrecipitationIn, CloudCover, Events, WindDirDegrees
2012-9-1,86,72,57,55,50,46,72,52,30,30.15,30.09,30.02,10,10,10,17,8,29,0.00,0,,105
2012-9-2,89,72,55,64,58,46,88,61,40,30.02,29.92,29.82,10,10,10,13,6,20,0.00,0,,146
2012-9-3,93,78,64,72,57,41,100,60,17,29.95,29.90,29.86,10,10,10,7,2,,0.00,1,,52
2012-9-4,89,74,60,66,53,37,94,55,16,29.91,29.83,29.77,10,10,0,10,4,17,0.00,0,Fog,262
2012-9-5,78,68,57,55,48,39,82,52,24,29.93,29.86,29.70,10,10,10,28,7,32,0.00,1,Rain,297
2012-9-6,80,66,51,61,50,43,88,65,26,29.98,29.93,29.89,10,10,5,10,4,,0.00,3,Rain-Thunderstorm,237
2012-9-7,68,59,50,57,49,39,94,68,37,30.08,30.01,29.93,10,10,10,20,9,29,0.00,5,Thunderstorm,337
2012-9-8,75,60,44,52,44,34,100,62,23,30.08,29.99,29.87,10,10,10,26,8,38,0.00,3,,290
2012-9-9,77,62,48,61,46,37,100,65,29,30.22,30.15,30.09,10,10,10,7,4,,0.00,1,,317
2012-9-10,84,68,51,50,46,43,82,49,25,30.08,29.91,29.78,10,10,10,13,6,24,0.00,1,,165
2012-9-11,96,78,60,54,50,45,72,45,19,29.90,29.74,29.67,10,10,10,12,7,26,0.00,0,,185
2012-9-12,66,60,53,52,45,36,94,62,32,30.25,30.14,29.91,10,10,10,17,7,23,0.00,3,Rain,250
2012-9-13,77,60,42,52,35,21,100,51,14,30.35,30.30,30.25,10,10,10,13,3,18,0.00,1,,295
2012-9-14,78,60,42,41,35,30,76,44,17,30.34,30.30,30.24,10,10,10,9,4,,0.00,1,,76
2012-9-15,87,64,42,48,40,36,76,45,17,30.24,30.07,29.94,10,10,10,9,5,18,0.00,1,,178
2012-9-16,80,68,57,55,46,39,88,48,24,30.00,29.93,29.90,10,10,10,17,6,22,0.00,1,Thunderstorm,304
2012-9-17,62,52,41,48,39,30,100,64,30,30.04,30.01,29.97,10,10,5,16,9,22,0.00,4,Rain-Thunderstorm,328
2012-9-18,62,50,37,39,33,27,100,59,26,30.06,30.00,29.85,10,10,10,10,5,,0.00,3,,292
2012-9-19,71,60,48,46,38,34,77,48,27,29.87,29.75,29.64,10,10,10,24,9,34,0.00,1,Rain,258
2012-9-20,66,56,46,37,33,27,71,46,23,29.95,29.91,29.87,10,10,10,16,8,28,0.00,1,,286
2012-9-21,64,53,42,48,36,25,93,54,25,29.96,29.86,29.83,10,10,10,25,6,40,0.00,4,Rain,316
2012-9-22,57,47,37,36,29,21,71,52,25,30.27,30.16,29.97,10,10,10,18,13,25,0.00,3,,320
2012-9-23,62,46,30,37,27,21,93,55,20,30.33,30.26,30.16,10,10,10,12,4,18,0.00,0,,293
2012-9-24,78,56,35,37,30,25,75,42,17,30.15,29.91,29.75,10,10,10,12,3,18,0.00,0,,252
2012-9-25,68,54,39,43,37,28,93,56,23,29.94,29.88,29.80,10,10,10,12,4,,0.00,0,,6
2012-9-26,64,52,39,32,29,25,70,47,28,30.23,30.19,30.14,10,10,10,6,3,,0.00,0,,25
2012-9-27,71,52,33,46,33,27,100,57,20,30.28,30.22,30.17,10,10,7,8,1,,0.00,0,,123
2012-9-28,80,60,39,48,37,28,100,54,15,30.22,30.17,30.11,10,10,10,7,1,,0.00,0,,205
2012-9-29,80,64,50,39,36,32,58,42,18,30.14,30.12,30.11,10,10,10,7,2,,0.00,0,,284
2012-9-30,,,,,,,,,,,,,,,,,,,,,,